sensor_id;sensor_type;location;lat;lon;timestamp;P1;durP1;ratioP1;P2;durP2;ratioP2
64959;SDS011;51487;52.266;10.542;2022-07-29T00:00:43;4.97;;;1.40;;
64959;SDS011;51487;52.266;10.542;2022-07-29T00:03:09;4.65;;;1.48;;
64959;SDS011;51487;52.266;10.542;2022-07-29T00:05:38;4.65;;;1.52;;
64959;SDS011;51487;52.266;10.542;2022-07-29T00:08:05;4.40;;;1.67;;
64959;SDS011;51487;52.266;10.542;2022-07-29T00:10:31;5.03;;;1.48;;
64959;SDS011;51487;52.266;10.542;2022-07-29T00:12:57;4.90;;;1.00;;
64959;SDS011;51487;52.266;10.542;2022-07-29T00:15:23;3.25;;;1.25;;
64959;SDS011;51487;52.266;10.542;2022-07-29T00:17:49;4.00;;;1.50;;
64959;SDS011;51487;52.266;10.542;2022-07-29T00:20:14;1.10;;;1.00;;
64959;SDS011;51487;52.266;10.542;2022-07-29T00:22:40;3.67;;;1.30;;
64959;SDS011;51487;52.266;10.542;2022-07-29T00:25:06;1.70;;;1.20;;
64959;SDS011;51487;52.266;10.542;2022-07-29T00:27:32;2.65;;;1.17;;
64959;SDS011;51487;52.266;10.542;2022-07-29T00:29:59;5.35;;;1.30;;
64959;SDS011;51487;52.266;10.542;2022-07-29T00:32:25;4.35;;;1.75;;
64959;SDS011;51487;52.266;10.542;2022-07-29T00:34:51;4.10;;;1.30;;
64959;SDS011;51487;52.266;10.542;2022-07-29T00:37:35;2.78;;;1.20;;
64959;SDS011;51487;52.266;10.542;2022-07-29T00:40:00;5.97;;;1.50;;
64959;SDS011;51487;52.266;10.542;2022-07-29T00:42:26;3.08;;;1.50;;
64959;SDS011;51487;52.266;10.542;2022-07-29T00:44:52;1.73;;;1.08;;
64959;SDS011;51487;52.266;10.542;2022-07-29T00:47:17;4.22;;;1.20;;
64959;SDS011;51487;52.266;10.542;2022-07-29T00:49:43;4.20;;;1.40;;
64959;SDS011;51487;52.266;10.542;2022-07-29T00:52:09;3.55;;;1.48;;
64959;SDS011;51487;52.266;10.542;2022-07-29T00:54:37;4.90;;;1.60;;
64959;SDS011;51487;52.266;10.542;2022-07-29T00:57:05;3.00;;;1.52;;
64959;SDS011;51487;52.266;10.542;2022-07-29T00:59:33;5.05;;;1.55;;
64959;SDS011;51487;52.266;10.542;2022-07-29T01:01:59;2.55;;;1.00;;
64959;SDS011;51487;52.266;10.542;2022-07-29T01:04:24;8.23;;;1.55;;
64959;SDS011;51487;52.266;10.542;2022-07-29T01:06:51;6.10;;;1.30;;
64959;SDS011;51487;52.266;10.542;2022-07-29T01:09:18;4.95;;;1.30;;
64959;SDS011;51487;52.266;10.542;2022-07-29T01:11:44;4.75;;;1.38;;
64959;SDS011;51487;52.266;10.542;2022-07-29T01:14:12;5.68;;;1.38;;
64959;SDS011;51487;52.266;10.542;2022-07-29T01:30:28;7.18;;;1.38;;
64959;SDS011;51487;52.266;10.542;2022-07-29T01:32:58;7.22;;;1.50;;
64959;SDS011;51487;52.266;10.542;2022-07-29T01:35:31;6.13;;;1.43;;
64959;SDS011;51487;52.266;10.542;2022-07-29T01:40:53;2.70;;;1.15;;
64959;SDS011;51487;52.266;10.542;2022-07-29T01:43:30;4.70;;;1.30;;
64959;SDS011;51487;52.266;10.542;2022-07-29T01:46:05;6.63;;;1.42;;
64959;SDS011;51487;52.266;10.542;2022-07-29T01:48:47;9.35;;;1.40;;
64959;SDS011;51487;52.266;10.542;2022-07-29T01:51:19;5.20;;;1.38;;
64959;SDS011;51487;52.266;10.542;2022-07-29T01:54:16;8.88;;;1.42;;
64959;SDS011;51487;52.266;10.542;2022-07-29T01:57:15;5.97;;;1.60;;
64959;SDS011;51487;52.266;10.542;2022-07-29T01:59:45;4.00;;;1.40;;
64959;SDS011;51487;52.266;10.542;2022-07-29T02:02:15;3.08;;;1.30;;
64959;SDS011;51487;52.266;10.542;2022-07-29T02:04:43;3.03;;;1.50;;
64959;SDS011;51487;52.266;10.542;2022-07-29T02:07:13;1.88;;;1.30;;
64959;SDS011;51487;52.266;10.542;2022-07-29T02:09:44;6.05;;;1.40;;
64959;SDS011;51487;52.266;10.542;2022-07-29T02:12:14;7.07;;;1.30;;
64959;SDS011;51487;52.266;10.542;2022-07-29T02:14:47;4.50;;;1.70;;
64959;SDS011;51487;52.266;10.542;2022-07-29T02:17:19;3.45;;;1.25;;
64959;SDS011;51487;52.266;10.542;2022-07-29T02:19:51;4.22;;;1.33;;
64959;SDS011;51487;52.266;10.542;2022-07-29T02:22:21;4.28;;;1.42;;
64959;SDS011;51487;52.266;10.542;2022-07-29T02:24:51;1.92;;;1.40;;
64959;SDS011;51487;52.266;10.542;2022-07-29T02:27:18;3.95;;;1.38;;
64959;SDS011;51487;52.266;10.542;2022-07-29T02:29:46;2.78;;;1.20;;
64959;SDS011;51487;52.266;10.542;2022-07-29T02:32:13;4.45;;;1.30;;
64959;SDS011;51487;52.266;10.542;2022-07-29T02:34:41;3.00;;;1.38;;
64959;SDS011;51487;52.266;10.542;2022-07-29T02:37:09;3.78;;;1.17;;
64959;SDS011;51487;52.266;10.542;2022-07-29T02:39:37;5.18;;;1.20;;
64959;SDS011;51487;52.266;10.542;2022-07-29T02:42:07;5.90;;;1.55;;
64959;SDS011;51487;52.266;10.542;2022-07-29T02:44:38;4.68;;;1.55;;
64959;SDS011;51487;52.266;10.542;2022-07-29T02:47:16;7.07;;;1.35;;
64959;SDS011;51487;52.266;10.542;2022-07-29T02:55:40;2.78;;;1.30;;
64959;SDS011;51487;52.266;10.542;2022-07-29T03:00:58;4.18;;;1.60;;
64959;SDS011;51487;52.266;10.542;2022-07-29T03:03:28;3.90;;;1.40;;
64959;SDS011;51487;52.266;10.542;2022-07-29T03:06:01;3.33;;;1.33;;
64959;SDS011;51487;52.266;10.542;2022-07-29T03:08:28;2.90;;;1.27;;
64959;SDS011;51487;52.266;10.542;2022-07-29T03:10:57;5.13;;;1.40;;
64959;SDS011;51487;52.266;10.542;2022-07-29T03:13:23;5.35;;;1.60;;
64959;SDS011;51487;52.266;10.542;2022-07-29T03:15:51;3.78;;;1.40;;
64959;SDS011;51487;52.266;10.542;2022-07-29T03:18:18;3.78;;;1.63;;
64959;SDS011;51487;52.266;10.542;2022-07-29T03:20:43;2.67;;;1.30;;
64959;SDS011;51487;52.266;10.542;2022-07-29T03:23:09;4.38;;;1.30;;
64959;SDS011;51487;52.266;10.542;2022-07-29T03:25:35;4.18;;;1.40;;
64959;SDS011;51487;52.266;10.542;2022-07-29T03:28:01;2.08;;;1.30;;
64959;SDS011;51487;52.266;10.542;2022-07-29T03:30:28;3.83;;;1.25;;
64959;SDS011;51487;52.266;10.542;2022-07-29T03:32:55;4.93;;;1.70;;
64959;SDS011;51487;52.266;10.542;2022-07-29T03:35:21;3.33;;;1.50;;
64959;SDS011;51487;52.266;10.542;2022-07-29T03:37:47;5.43;;;1.45;;
64959;SDS011;51487;52.266;10.542;2022-07-29T03:40:16;2.65;;;1.55;;
64959;SDS011;51487;52.266;10.542;2022-07-29T03:42:50;4.80;;;1.40;;
64959;SDS011;51487;52.266;10.542;2022-07-29T03:45:20;4.55;;;1.50;;
64959;SDS011;51487;52.266;10.542;2022-07-29T03:47:51;3.20;;;1.50;;
64959;SDS011;51487;52.266;10.542;2022-07-29T03:50:22;2.83;;;1.40;;
64959;SDS011;51487;52.266;10.542;2022-07-29T03:52:48;2.97;;;1.40;;
64959;SDS011;51487;52.266;10.542;2022-07-29T03:55:14;3.72;;;1.50;;
64959;SDS011;51487;52.266;10.542;2022-07-29T03:57:41;7.53;;;1.63;;
64959;SDS011;51487;52.266;10.542;2022-07-29T04:00:09;2.80;;;1.60;;
64959;SDS011;51487;52.266;10.542;2022-07-29T04:02:36;5.55;;;1.80;;
64959;SDS011;51487;52.266;10.542;2022-07-29T04:05:03;3.67;;;1.50;;
64959;SDS011;51487;52.266;10.542;2022-07-29T04:07:29;8.23;;;1.60;;
64959;SDS011;51487;52.266;10.542;2022-07-29T04:09:55;3.33;;;1.30;;
64959;SDS011;51487;52.266;10.542;2022-07-29T04:12:20;4.30;;;1.55;;
64959;SDS011;51487;52.266;10.542;2022-07-29T04:14:46;5.40;;;1.60;;
64959;SDS011;51487;52.266;10.542;2022-07-29T04:17:12;15.13;;;2.10;;
64959;SDS011;51487;52.266;10.542;2022-07-29T04:19:37;4.28;;;1.20;;
64959;SDS011;51487;52.266;10.542;2022-07-29T04:22:03;5.00;;;1.80;;
64959;SDS011;51487;52.266;10.542;2022-07-29T04:24:28;8.25;;;1.95;;
64959;SDS011;51487;52.266;10.542;2022-07-29T04:26:54;7.22;;;2.25;;
64959;SDS011;51487;52.266;10.542;2022-07-29T04:29:20;5.55;;;1.60;;
64959;SDS011;51487;52.266;10.542;2022-07-29T04:31:45;5.50;;;1.60;;
64959;SDS011;51487;52.266;10.542;2022-07-29T04:34:11;5.28;;;1.92;;
64959;SDS011;51487;52.266;10.542;2022-07-29T04:36:37;6.88;;;1.60;;
64959;SDS011;51487;52.266;10.542;2022-07-29T04:39:03;5.00;;;1.70;;
64959;SDS011;51487;52.266;10.542;2022-07-29T04:41:28;6.35;;;1.70;;
64959;SDS011;51487;52.266;10.542;2022-07-29T04:43:54;3.33;;;1.60;;
64959;SDS011;51487;52.266;10.542;2022-07-29T04:46:20;4.28;;;1.65;;
64959;SDS011;51487;52.266;10.542;2022-07-29T04:48:47;2.28;;;1.40;;
64959;SDS011;51487;52.266;10.542;2022-07-29T04:51:13;1.60;;;1.20;;
64959;SDS011;51487;52.266;10.542;2022-07-29T04:53:40;2.78;;;1.60;;
64959;SDS011;51487;52.266;10.542;2022-07-29T04:56:06;4.10;;;1.50;;
64959;SDS011;51487;52.266;10.542;2022-07-29T04:58:33;7.88;;;2.00;;
64959;SDS011;51487;52.266;10.542;2022-07-29T05:01:00;6.32;;;2.58;;
64959;SDS011;51487;52.266;10.542;2022-07-29T05:03:25;4.53;;;1.42;;
64959;SDS011;51487;52.266;10.542;2022-07-29T05:05:51;5.35;;;1.70;;
64959;SDS011;51487;52.266;10.542;2022-07-29T05:08:17;8.88;;;1.55;;
64959;SDS011;51487;52.266;10.542;2022-07-29T05:10:42;6.10;;;1.70;;
64959;SDS011;51487;52.266;10.542;2022-07-29T05:13:08;6.68;;;1.90;;
64959;SDS011;51487;52.266;10.542;2022-07-29T05:15:34;3.65;;;1.65;;
64959;SDS011;51487;52.266;10.542;2022-07-29T05:18:00;3.75;;;1.50;;
64959;SDS011;51487;52.266;10.542;2022-07-29T05:20:27;5.32;;;1.80;;
64959;SDS011;51487;52.266;10.542;2022-07-29T05:22:55;6.22;;;1.58;;
64959;SDS011;51487;52.266;10.542;2022-07-29T05:25:26;4.38;;;1.63;;
64959;SDS011;51487;52.266;10.542;2022-07-29T05:27:53;8.07;;;1.85;;
64959;SDS011;51487;52.266;10.542;2022-07-29T05:30:20;2.35;;;1.58;;
64959;SDS011;51487;52.266;10.542;2022-07-29T05:32:46;4.95;;;1.80;;
64959;SDS011;51487;52.266;10.542;2022-07-29T05:35:12;4.78;;;1.85;;
64959;SDS011;51487;52.266;10.542;2022-07-29T05:37:38;5.15;;;1.60;;
64959;SDS011;51487;52.266;10.542;2022-07-29T05:40:04;6.55;;;2.15;;
64959;SDS011;51487;52.266;10.542;2022-07-29T05:42:31;3.83;;;1.95;;
64959;SDS011;51487;52.266;10.542;2022-07-29T05:44:57;5.55;;;2.28;;
64959;SDS011;51487;52.266;10.542;2022-07-29T05:47:23;4.68;;;1.80;;
64959;SDS011;51487;52.266;10.542;2022-07-29T05:49:49;5.90;;;1.92;;
64959;SDS011;51487;52.266;10.542;2022-07-29T05:52:15;4.15;;;1.80;;
64959;SDS011;51487;52.266;10.542;2022-07-29T05:54:41;7.78;;;2.00;;
64959;SDS011;51487;52.266;10.542;2022-07-29T05:57:08;4.53;;;1.65;;
64959;SDS011;51487;52.266;10.542;2022-07-29T05:59:39;4.82;;;1.90;;
64959;SDS011;51487;52.266;10.542;2022-07-29T06:02:05;3.90;;;2.00;;
64959;SDS011;51487;52.266;10.542;2022-07-29T06:04:31;3.53;;;1.80;;
64959;SDS011;51487;52.266;10.542;2022-07-29T06:06:57;4.75;;;1.65;;
64959;SDS011;51487;52.266;10.542;2022-07-29T06:09:23;5.25;;;1.90;;
64959;SDS011;51487;52.266;10.542;2022-07-29T06:11:48;4.32;;;1.90;;
64959;SDS011;51487;52.266;10.542;2022-07-29T06:14:14;3.90;;;2.28;;
64959;SDS011;51487;52.266;10.542;2022-07-29T06:16:40;6.22;;;1.83;;
64959;SDS011;51487;52.266;10.542;2022-07-29T06:19:06;6.50;;;1.85;;
64959;SDS011;51487;52.266;10.542;2022-07-29T06:21:31;7.00;;;2.17;;
64959;SDS011;51487;52.266;10.542;2022-07-29T06:23:58;3.92;;;2.00;;
64959;SDS011;51487;52.266;10.542;2022-07-29T06:26:24;5.55;;;1.67;;
64959;SDS011;51487;52.266;10.542;2022-07-29T06:28:50;5.30;;;1.95;;
64959;SDS011;51487;52.266;10.542;2022-07-29T06:31:15;7.45;;;2.10;;
64959;SDS011;51487;52.266;10.542;2022-07-29T06:33:41;4.10;;;1.95;;
64959;SDS011;51487;52.266;10.542;2022-07-29T06:36:06;4.40;;;2.10;;
64959;SDS011;51487;52.266;10.542;2022-07-29T06:38:32;4.25;;;2.00;;
64959;SDS011;51487;52.266;10.542;2022-07-29T06:40:59;4.95;;;2.20;;
64959;SDS011;51487;52.266;10.542;2022-07-29T06:43:35;4.20;;;2.00;;
64959;SDS011;51487;52.266;10.542;2022-07-29T06:46:04;5.30;;;2.33;;
64959;SDS011;51487;52.266;10.542;2022-07-29T06:48:32;5.43;;;2.67;;
64959;SDS011;51487;52.266;10.542;2022-07-29T06:50:59;3.58;;;1.85;;
64959;SDS011;51487;52.266;10.542;2022-07-29T06:53:26;8.77;;;2.33;;
64959;SDS011;51487;52.266;10.542;2022-07-29T06:55:52;6.22;;;2.50;;
64959;SDS011;51487;52.266;10.542;2022-07-29T06:58:18;4.65;;;2.00;;
64959;SDS011;51487;52.266;10.542;2022-07-29T07:00:45;7.78;;;2.42;;
64959;SDS011;51487;52.266;10.542;2022-07-29T07:03:13;3.92;;;2.38;;
64959;SDS011;51487;52.266;10.542;2022-07-29T07:05:39;6.75;;;2.40;;
64959;SDS011;51487;52.266;10.542;2022-07-29T07:08:05;6.05;;;2.25;;
64959;SDS011;51487;52.266;10.542;2022-07-29T07:10:31;5.65;;;2.05;;
64959;SDS011;51487;52.266;10.542;2022-07-29T07:12:57;5.75;;;2.00;;
64959;SDS011;51487;52.266;10.542;2022-07-29T07:15:24;7.30;;;2.53;;
64959;SDS011;51487;52.266;10.542;2022-07-29T07:17:49;5.07;;;2.40;;
64959;SDS011;51487;52.266;10.542;2022-07-29T07:20:16;3.45;;;1.90;;
64959;SDS011;51487;52.266;10.542;2022-07-29T07:22:42;7.97;;;2.38;;
64959;SDS011;51487;52.266;10.542;2022-07-29T07:25:08;4.65;;;2.20;;
64959;SDS011;51487;52.266;10.542;2022-07-29T07:27:35;5.97;;;2.38;;
64959;SDS011;51487;52.266;10.542;2022-07-29T07:30:02;6.05;;;2.33;;
64959;SDS011;51487;52.266;10.542;2022-07-29T07:32:32;5.03;;;2.25;;
64959;SDS011;51487;52.266;10.542;2022-07-29T07:34:58;33.50;;;9.57;;
64959;SDS011;51487;52.266;10.542;2022-07-29T07:37:25;26.60;;;6.97;;
64959;SDS011;51487;52.266;10.542;2022-07-29T07:39:51;15.00;;;4.68;;
64959;SDS011;51487;52.266;10.542;2022-07-29T07:42:18;9.25;;;3.55;;
64959;SDS011;51487;52.266;10.542;2022-07-29T07:44:44;7.38;;;2.63;;
64959;SDS011;51487;52.266;10.542;2022-07-29T07:47:13;6.80;;;2.60;;
64959;SDS011;51487;52.266;10.542;2022-07-29T07:49:40;9.52;;;2.60;;
64959;SDS011;51487;52.266;10.542;2022-07-29T07:52:06;7.70;;;2.35;;
64959;SDS011;51487;52.266;10.542;2022-07-29T07:54:31;6.90;;;2.40;;
64959;SDS011;51487;52.266;10.542;2022-07-29T07:56:57;6.70;;;2.40;;
64959;SDS011;51487;52.266;10.542;2022-07-29T07:59:23;7.93;;;2.08;;
64959;SDS011;51487;52.266;10.542;2022-07-29T08:01:49;4.60;;;1.98;;
64959;SDS011;51487;52.266;10.542;2022-07-29T08:04:15;4.90;;;2.30;;
64959;SDS011;51487;52.266;10.542;2022-07-29T08:06:41;4.55;;;2.03;;
64959;SDS011;51487;52.266;10.542;2022-07-29T08:09:07;7.43;;;2.50;;
64959;SDS011;51487;52.266;10.542;2022-07-29T08:11:32;7.28;;;2.50;;
64959;SDS011;51487;52.266;10.542;2022-07-29T08:13:58;5.75;;;2.35;;
64959;SDS011;51487;52.266;10.542;2022-07-29T08:16:26;6.18;;;2.00;;
64959;SDS011;51487;52.266;10.542;2022-07-29T08:18:52;4.93;;;2.08;;
64959;SDS011;51487;52.266;10.542;2022-07-29T08:21:22;5.05;;;2.00;;
64959;SDS011;51487;52.266;10.542;2022-07-29T08:23:48;8.68;;;2.30;;
64959;SDS011;51487;52.266;10.542;2022-07-29T08:26:17;3.28;;;2.15;;
64959;SDS011;51487;52.266;10.542;2022-07-29T08:28:45;5.22;;;2.40;;
64959;SDS011;51487;52.266;10.542;2022-07-29T08:31:14;5.70;;;2.15;;
64959;SDS011;51487;52.266;10.542;2022-07-29T08:33:40;9.10;;;2.72;;
64959;SDS011;51487;52.266;10.542;2022-07-29T08:36:07;4.85;;;1.98;;
64959;SDS011;51487;52.266;10.542;2022-07-29T08:38:33;6.82;;;2.50;;
64959;SDS011;51487;52.266;10.542;2022-07-29T08:41:02;7.70;;;2.35;;
64959;SDS011;51487;52.266;10.542;2022-07-29T08:43:27;6.88;;;3.38;;
64959;SDS011;51487;52.266;10.542;2022-07-29T08:45:54;4.80;;;2.15;;
64959;SDS011;51487;52.266;10.542;2022-07-29T08:48:20;5.65;;;2.13;;
64959;SDS011;51487;52.266;10.542;2022-07-29T08:50:48;12.60;;;2.40;;
64959;SDS011;51487;52.266;10.542;2022-07-29T08:53:20;7.82;;;2.78;;
64959;SDS011;51487;52.266;10.542;2022-07-29T08:55:49;8.63;;;2.60;;
64959;SDS011;51487;52.266;10.542;2022-07-29T08:58:15;7.60;;;2.60;;
64959;SDS011;51487;52.266;10.542;2022-07-29T09:00:47;5.65;;;2.40;;
64959;SDS011;51487;52.266;10.542;2022-07-29T09:03:19;4.85;;;2.25;;
64959;SDS011;51487;52.266;10.542;2022-07-29T09:05:48;5.18;;;2.00;;
64959;SDS011;51487;52.266;10.542;2022-07-29T09:08:15;7.22;;;2.35;;
64959;SDS011;51487;52.266;10.542;2022-07-29T09:10:42;7.53;;;2.47;;
64959;SDS011;51487;52.266;10.542;2022-07-29T09:13:09;8.63;;;2.40;;
64959;SDS011;51487;52.266;10.542;2022-07-29T09:15:35;8.50;;;2.45;;
64959;SDS011;51487;52.266;10.542;2022-07-29T09:18:00;10.10;;;2.47;;
64959;SDS011;51487;52.266;10.542;2022-07-29T09:20:27;7.95;;;2.22;;
64959;SDS011;51487;52.266;10.542;2022-07-29T09:23:13;7.95;;;2.55;;
64959;SDS011;51487;52.266;10.542;2022-07-29T09:25:39;8.10;;;2.08;;
64959;SDS011;51487;52.266;10.542;2022-07-29T09:28:07;10.85;;;2.33;;
64959;SDS011;51487;52.266;10.542;2022-07-29T09:30:57;5.07;;;2.20;;
64959;SDS011;51487;52.266;10.542;2022-07-29T09:33:24;8.23;;;2.60;;
64959;SDS011;51487;52.266;10.542;2022-07-29T09:36:05;10.45;;;2.40;;
64959;SDS011;51487;52.266;10.542;2022-07-29T09:38:34;7.45;;;2.47;;
64959;SDS011;51487;52.266;10.542;2022-07-29T09:41:03;6.35;;;2.45;;
64959;SDS011;51487;52.266;10.542;2022-07-29T09:43:30;5.63;;;1.95;;
64959;SDS011;51487;52.266;10.542;2022-07-29T09:45:55;6.25;;;2.25;;
64959;SDS011;51487;52.266;10.542;2022-07-29T09:48:37;7.97;;;2.53;;
64959;SDS011;51487;52.266;10.542;2022-07-29T09:51:03;6.72;;;2.65;;
64959;SDS011;51487;52.266;10.542;2022-07-29T09:53:31;10.27;;;2.83;;
64959;SDS011;51487;52.266;10.542;2022-07-29T09:56:02;11.30;;;2.73;;
64959;SDS011;51487;52.266;10.542;2022-07-29T09:58:29;6.90;;;2.08;;
64959;SDS011;51487;52.266;10.542;2022-07-29T10:00:57;6.32;;;2.20;;
64959;SDS011;51487;52.266;10.542;2022-07-29T10:03:23;10.25;;;2.50;;
64959;SDS011;51487;52.266;10.542;2022-07-29T10:06:09;6.72;;;2.65;;
64959;SDS011;51487;52.266;10.542;2022-07-29T10:08:38;6.10;;;2.47;;
64959;SDS011;51487;52.266;10.542;2022-07-29T10:11:10;5.88;;;2.25;;
64959;SDS011;51487;52.266;10.542;2022-07-29T10:13:39;5.32;;;2.60;;
64959;SDS011;51487;52.266;10.542;2022-07-29T10:16:06;14.80;;;2.95;;
64959;SDS011;51487;52.266;10.542;2022-07-29T10:18:33;5.55;;;2.33;;
64959;SDS011;51487;52.266;10.542;2022-07-29T10:21:00;4.47;;;2.40;;
64959;SDS011;51487;52.266;10.542;2022-07-29T10:23:29;10.07;;;2.50;;
64959;SDS011;51487;52.266;10.542;2022-07-29T10:25:55;7.65;;;2.50;;
64959;SDS011;51487;52.266;10.542;2022-07-29T10:28:21;8.82;;;2.17;;
64959;SDS011;51487;52.266;10.542;2022-07-29T10:30:48;8.38;;;2.42;;
64959;SDS011;51487;52.266;10.542;2022-07-29T10:44:42;5.22;;;2.20;;
64959;SDS011;51487;52.266;10.542;2022-07-29T10:47:19;7.43;;;2.22;;
64959;SDS011;51487;52.266;10.542;2022-07-29T10:49:57;5.18;;;2.30;;
64959;SDS011;51487;52.266;10.542;2022-07-29T10:52:23;4.22;;;2.08;;
64959;SDS011;51487;52.266;10.542;2022-07-29T10:54:52;4.95;;;2.00;;
64959;SDS011;51487;52.266;10.542;2022-07-29T10:57:23;7.68;;;2.00;;
64959;SDS011;51487;52.266;10.542;2022-07-29T11:05:07;6.00;;;2.08;;
64959;SDS011;51487;52.266;10.542;2022-07-29T11:10:38;3.75;;;1.88;;
64959;SDS011;51487;52.266;10.542;2022-07-29T11:13:05;5.18;;;2.10;;
64959;SDS011;51487;52.266;10.542;2022-07-29T11:15:51;8.98;;;2.10;;
64959;SDS011;51487;52.266;10.542;2022-07-29T11:18:20;7.85;;;2.20;;
64959;SDS011;51487;52.266;10.542;2022-07-29T11:20:46;12.77;;;2.10;;
64959;SDS011;51487;52.266;10.542;2022-07-29T11:23:28;8.27;;;2.40;;
64959;SDS011;51487;52.266;10.542;2022-07-29T11:39:38;6.45;;;2.25;;
64959;SDS011;51487;52.266;10.542;2022-07-29T11:47:39;6.00;;;2.10;;
64959;SDS011;51487;52.266;10.542;2022-07-29T11:50:12;6.85;;;2.08;;
64959;SDS011;51487;52.266;10.542;2022-07-29T11:52:42;6.90;;;2.30;;
64959;SDS011;51487;52.266;10.542;2022-07-29T11:55:12;6.43;;;1.98;;
64959;SDS011;51487;52.266;10.542;2022-07-29T11:57:47;7.18;;;2.30;;
64959;SDS011;51487;52.266;10.542;2022-07-29T12:02:52;8.00;;;2.30;;
64959;SDS011;51487;52.266;10.542;2022-07-29T12:05:18;8.82;;;2.30;;
64959;SDS011;51487;52.266;10.542;2022-07-29T12:07:45;9.02;;;2.72;;
64959;SDS011;51487;52.266;10.542;2022-07-29T12:10:12;10.45;;;2.42;;
64959;SDS011;51487;52.266;10.542;2022-07-29T12:12:38;7.22;;;2.30;;
64959;SDS011;51487;52.266;10.542;2022-07-29T12:15:17;4.43;;;1.90;;
64959;SDS011;51487;52.266;10.542;2022-07-29T12:17:45;6.53;;;2.30;;
64959;SDS011;51487;52.266;10.542;2022-07-29T12:20:13;4.18;;;2.00;;
64959;SDS011;51487;52.266;10.542;2022-07-29T12:22:48;4.55;;;2.22;;
64959;SDS011;51487;52.266;10.542;2022-07-29T12:25:14;7.22;;;2.38;;
64959;SDS011;51487;52.266;10.542;2022-07-29T12:27:42;6.15;;;1.98;;
64959;SDS011;51487;52.266;10.542;2022-07-29T12:30:11;17.08;;;2.50;;
64959;SDS011;51487;52.266;10.542;2022-07-29T12:32:41;4.78;;;2.22;;
64959;SDS011;51487;52.266;10.542;2022-07-29T12:35:12;4.80;;;2.20;;
64959;SDS011;51487;52.266;10.542;2022-07-29T12:37:40;4.93;;;2.10;;
64959;SDS011;51487;52.266;10.542;2022-07-29T12:40:07;5.75;;;2.67;;
64959;SDS011;51487;52.266;10.542;2022-07-29T12:42:37;6.15;;;2.50;;
64959;SDS011;51487;52.266;10.542;2022-07-29T12:45:04;7.18;;;2.50;;
64959;SDS011;51487;52.266;10.542;2022-07-29T12:47:31;4.57;;;2.22;;
64959;SDS011;51487;52.266;10.542;2022-07-29T12:50:07;5.18;;;2.20;;
64959;SDS011;51487;52.266;10.542;2022-07-29T12:52:42;4.20;;;2.20;;
64959;SDS011;51487;52.266;10.542;2022-07-29T12:55:10;6.25;;;2.25;;
64959;SDS011;51487;52.266;10.542;2022-07-29T12:57:46;7.63;;;2.15;;
64959;SDS011;51487;52.266;10.542;2022-07-29T13:00:16;4.55;;;2.20;;
64959;SDS011;51487;52.266;10.542;2022-07-29T13:02:46;4.32;;;2.08;;
64959;SDS011;51487;52.266;10.542;2022-07-29T13:05:21;5.22;;;2.22;;
64959;SDS011;51487;52.266;10.542;2022-07-29T13:07:47;5.40;;;2.60;;
64959;SDS011;51487;52.266;10.542;2022-07-29T13:10:15;8.80;;;2.85;;
64959;SDS011;51487;52.266;10.542;2022-07-29T13:15:36;4.28;;;2.30;;
64959;SDS011;51487;52.266;10.542;2022-07-29T13:18:26;3.10;;;1.95;;
64959;SDS011;51487;52.266;10.542;2022-07-29T13:20:54;10.05;;;2.38;;
64959;SDS011;51487;52.266;10.542;2022-07-29T13:23:20;3.63;;;2.13;;
64959;SDS011;51487;52.266;10.542;2022-07-29T13:25:46;4.80;;;2.53;;
64959;SDS011;51487;52.266;10.542;2022-07-29T13:28:11;4.03;;;2.28;;
64959;SDS011;51487;52.266;10.542;2022-07-29T13:30:37;3.08;;;1.90;;
64959;SDS011;51487;52.266;10.542;2022-07-29T13:33:06;5.13;;;2.50;;
64959;SDS011;51487;52.266;10.542;2022-07-29T13:35:31;6.15;;;2.58;;
64959;SDS011;51487;52.266;10.542;2022-07-29T13:37:57;6.45;;;2.28;;
64959;SDS011;51487;52.266;10.542;2022-07-29T13:40:22;7.38;;;2.13;;
64959;SDS011;51487;52.266;10.542;2022-07-29T13:42:48;5.28;;;2.55;;
64959;SDS011;51487;52.266;10.542;2022-07-29T13:45:15;6.43;;;2.45;;
64959;SDS011;51487;52.266;10.542;2022-07-29T13:47:40;7.68;;;2.45;;
64959;SDS011;51487;52.266;10.542;2022-07-29T13:50:06;4.28;;;2.03;;
64959;SDS011;51487;52.266;10.542;2022-07-29T13:52:35;9.27;;;2.50;;
64959;SDS011;51487;52.266;10.542;2022-07-29T13:55:02;4.95;;;2.22;;
64959;SDS011;51487;52.266;10.542;2022-07-29T13:57:28;3.90;;;2.33;;
64959;SDS011;51487;52.266;10.542;2022-07-29T13:59:54;4.30;;;2.08;;
64959;SDS011;51487;52.266;10.542;2022-07-29T14:02:20;4.38;;;2.63;;
64959;SDS011;51487;52.266;10.542;2022-07-29T14:04:46;4.80;;;2.35;;
64959;SDS011;51487;52.266;10.542;2022-07-29T14:07:12;4.70;;;2.20;;
64959;SDS011;51487;52.266;10.542;2022-07-29T14:09:38;5.15;;;2.30;;
64959;SDS011;51487;52.266;10.542;2022-07-29T14:12:03;7.22;;;2.03;;
64959;SDS011;51487;52.266;10.542;2022-07-29T14:14:29;5.30;;;2.30;;
64959;SDS011;51487;52.266;10.542;2022-07-29T14:16:57;5.32;;;2.25;;
64959;SDS011;51487;52.266;10.542;2022-07-29T14:19:23;9.88;;;2.40;;
64959;SDS011;51487;52.266;10.542;2022-07-29T14:21:49;4.28;;;2.35;;
64959;SDS011;51487;52.266;10.542;2022-07-29T14:24:15;3.17;;;2.00;;
64959;SDS011;51487;52.266;10.542;2022-07-29T14:26:40;5.30;;;2.17;;
64959;SDS011;51487;52.266;10.542;2022-07-29T14:29:06;7.57;;;2.33;;
64959;SDS011;51487;52.266;10.542;2022-07-29T14:31:32;4.20;;;2.15;;
64959;SDS011;51487;52.266;10.542;2022-07-29T14:33:57;5.88;;;2.45;;
64959;SDS011;51487;52.266;10.542;2022-07-29T14:36:23;4.13;;;2.30;;
64959;SDS011;51487;52.266;10.542;2022-07-29T14:38:48;6.43;;;2.00;;
64959;SDS011;51487;52.266;10.542;2022-07-29T14:41:14;5.63;;;2.10;;
64959;SDS011;51487;52.266;10.542;2022-07-29T14:43:40;3.97;;;2.20;;
64959;SDS011;51487;52.266;10.542;2022-07-29T14:46:05;5.13;;;2.30;;
64959;SDS011;51487;52.266;10.542;2022-07-29T14:48:32;8.55;;;2.58;;
64959;SDS011;51487;52.266;10.542;2022-07-29T14:50:57;6.32;;;2.97;;
64959;SDS011;51487;52.266;10.542;2022-07-29T14:53:23;5.68;;;3.00;;
64959;SDS011;51487;52.266;10.542;2022-07-29T14:55:49;8.15;;;3.40;;
64959;SDS011;51487;52.266;10.542;2022-07-29T14:58:14;7.10;;;2.60;;
64959;SDS011;51487;52.266;10.542;2022-07-29T15:00:40;8.98;;;5.10;;
64959;SDS011;51487;52.266;10.542;2022-07-29T15:03:05;10.15;;;2.10;;
64959;SDS011;51487;52.266;10.542;2022-07-29T15:05:34;4.43;;;2.25;;
64959;SDS011;51487;52.266;10.542;2022-07-29T15:08:00;4.22;;;2.30;;
64959;SDS011;51487;52.266;10.542;2022-07-29T15:10:25;5.28;;;2.42;;
64959;SDS011;51487;52.266;10.542;2022-07-29T15:12:52;4.80;;;2.00;;
64959;SDS011;51487;52.266;10.542;2022-07-29T15:15:18;6.75;;;2.50;;
64959;SDS011;51487;52.266;10.542;2022-07-29T15:17:43;9.85;;;2.30;;
64959;SDS011;51487;52.266;10.542;2022-07-29T15:20:10;5.25;;;2.28;;
64959;SDS011;51487;52.266;10.542;2022-07-29T15:22:37;6.32;;;2.03;;
64959;SDS011;51487;52.266;10.542;2022-07-29T15:25:03;5.10;;;2.10;;
64959;SDS011;51487;52.266;10.542;2022-07-29T15:27:30;3.58;;;1.80;;
64959;SDS011;51487;52.266;10.542;2022-07-29T15:29:56;4.55;;;1.80;;
64959;SDS011;51487;52.266;10.542;2022-07-29T15:32:22;5.03;;;2.20;;
64959;SDS011;51487;52.266;10.542;2022-07-29T15:34:48;11.40;;;2.33;;
64959;SDS011;51487;52.266;10.542;2022-07-29T15:37:14;3.60;;;1.80;;
64959;SDS011;51487;52.266;10.542;2022-07-29T15:39:39;3.35;;;1.95;;
64959;SDS011;51487;52.266;10.542;2022-07-29T15:42:05;4.97;;;2.35;;
64959;SDS011;51487;52.266;10.542;2022-07-29T15:44:31;5.45;;;2.47;;
64959;SDS011;51487;52.266;10.542;2022-07-29T15:46:57;7.22;;;2.20;;